Time;durP1;ratioP1;P1;durP2;ratioP2;P2;SDS_P1;SDS_P2;PMS_P1;PMS_P2;Temp;Humidity;BMP_temperature;BMP_pressure;BME280_temperature;BME280_humidity;BME280_pressure;Samples;Min_cycle;Max_cycle;Signal;HPM_P1;HPM_P2
2021/12/31 00:00:24;;;;;;;345.73;80.33;;;;;;;;;;5116407;28;20212;-68
2021/12/31 00:03:08;;;;;;;306.47;79.67;;;;;;;;;;5116762;28;20247;-67
2021/12/31 00:05:36;;;;;;;337.97;81.17;;;;;;;;;;5116776;28;20214;-67
2021/12/31 00:08:03;;;;;;;329.67;83.13;;;;;;;;;;5116635;28;20263;-67
2021/12/31 00:10:30;;;;;;;298.70;79.63;;;;;;;;;;5116649;28;20326;-67
2021/12/31 00:12:58;;;;;;;325.93;85.70;;;;;;;;;;5115343;28;20210;-67
2021/12/31 00:15:25;;;;;;;318.60;80.53;;;;;;;;;;5116119;28;20214;-67
2021/12/31 00:17:52;;;;;;;309.60;79.97;;;;;;;;;;5116314;28;20213;-67
2021/12/31 00:20:24;;;;;;;290.63;79.10;;;;;;;;;;5116110;28;20210;-67
2021/12/31 00:25:27;;;;;;;304.60;80.53;;;;;;;;;;5116019;28;20198;-67
2021/12/31 00:27:55;;;;;;;297.03;78.93;;;;;;;;;;5115996;28;20234;-68
2021/12/31 00:30:22;;;;;;;313.73;86.03;;;;;;;;;;5115001;28;20214;-67
2021/12/31 00:32:50;;;;;;;304.17;81.37;;;;;;;;;;5116046;28;20212;-68
2021/12/31 00:35:17;;;;;;;284.73;78.70;;;;;;;;;;5116106;28;20198;-67
2021/12/31 00:37:45;;;;;;;310.00;81.33;;;;;;;;;;5116285;28;20214;-67
2021/12/31 00:40:15;;;;;;;308.67;86.87;;;;;;;;;;5115776;28;20210;-67
2021/12/31 00:42:43;;;;;;;310.37;85.63;;;;;;;;;;5116384;28;20365;-67
2021/12/31 00:45:12;;;;;;;335.20;86.80;;;;;;;;;;5116438;28;20210;-67
2021/12/31 00:47:40;;;;;;;287.63;81.93;;;;;;;;;;5115423;28;20234;-67
2021/12/31 00:50:08;;;;;;;322.57;88.30;;;;;;;;;;5115747;28;20217;-67
2021/12/31 00:52:36;;;;;;;295.37;85.47;;;;;;;;;;5115997;28;20213;-67
2021/12/31 00:55:05;;;;;;;319.07;86.27;;;;;;;;;;5115761;28;20212;-67
2021/12/31 00:57:32;;;;;;;320.30;91.63;;;;;;;;;;5115717;28;20210;-68
2021/12/31 01:00:00;;;;;;;334.73;90.73;;;;;;;;;;5115643;28;20206;-67
2021/12/31 01:02:29;;;;;;;325.93;87.40;;;;;;;;;;5115648;28;20206;-67
2021/12/31 01:04:56;;;;;;;343.03;90.97;;;;;;;;;;5115128;28;20737;-67
2021/12/31 01:07:24;;;;;;;347.30;93.90;;;;;;;;;;5115355;28;20237;-67
2021/12/31 01:09:52;;;;;;;331.67;90.03;;;;;;;;;;5115458;28;20201;-67
2021/12/31 01:12:20;;;;;;;338.90;92.53;;;;;;;;;;5115458;28;20293;-67
2021/12/31 01:15:03;;;;;;;376.80;94.00;;;;;;;;;;5115126;28;20210;-68
2021/12/31 01:20:14;;;;;;;333.90;87.63;;;;;;;;;;5107157;28;20293;-67
2021/12/31 01:22:41;;;;;;;309.67;87.27;;;;;;;;;;5104398;28;20210;-67
2021/12/31 01:25:09;;;;;;;349.43;89.20;;;;;;;;;;5097912;28;20737;-67
2021/12/31 01:27:38;;;;;;;330.27;88.97;;;;;;;;;;5094579;28;20288;-67
2021/12/31 01:30:08;;;;;;;331.23;87.17;;;;;;;;;;5094474;28;20219;-68
2021/12/31 01:32:35;;;;;;;333.27;86.67;;;;;;;;;;5094293;28;20214;-67
2021/12/31 01:35:03;;;;;;;332.97;86.23;;;;;;;;;;5094657;28;20248;-67
2021/12/31 01:37:31;;;;;;;340.63;86.70;;;;;;;;;;5094179;28;20572;-68
2021/12/31 01:39:58;;;;;;;346.80;86.50;;;;;;;;;;5094568;28;20294;-67
2021/12/31 01:42:29;;;;;;;314.63;83.07;;;;;;;;;;5094558;28;20207;-67
2021/12/31 01:45:02;;;;;;;365.33;86.50;;;;;;;;;;5094550;28;20195;-67
2021/12/31 01:47:55;;;;;;;322.23;84.27;;;;;;;;;;5094435;28;20226;-67
2021/12/31 01:50:26;;;;;;;344.83;81.87;;;;;;;;;;5094404;28;20205;-67
2021/12/31 01:52:53;;;;;;;372.20;88.40;;;;;;;;;;5093571;28;20757;-68
2021/12/31 01:55:23;;;;;;;369.00;87.30;;;;;;;;;;5093924;28;20207;-68
2021/12/31 01:57:51;;;;;;;353.43;85.70;;;;;;;;;;5092781;28;20221;-67
2021/12/31 02:00:18;;;;;;;341.17;83.17;;;;;;;;;;5092694;28;20648;-67
2021/12/31 02:02:46;;;;;;;349.80;81.83;;;;;;;;;;5094181;28;20206;-67
2021/12/31 02:05:15;;;;;;;358.00;81.57;;;;;;;;;;5094045;28;20573;-67
2021/12/31 02:07:42;;;;;;;350.20;80.47;;;;;;;;;;5093013;28;20230;-67
2021/12/31 02:10:10;;;;;;;341.70;79.73;;;;;;;;;;5093914;28;20280;-67
2021/12/31 02:12:43;;;;;;;347.83;80.90;;;;;;;;;;5093782;28;20669;-67
2021/12/31 02:15:10;;;;;;;315.50;77.80;;;;;;;;;;5093699;28;20607;-67
2021/12/31 02:17:37;;;;;;;341.77;80.80;;;;;;;;;;5093977;28;20213;-67
2021/12/31 02:20:06;;;;;;;354.60;80.00;;;;;;;;;;5093700;28;20681;-67
2021/12/31 02:22:35;;;;;;;315.43;71.73;;;;;;;;;;5093990;28;20207;-67
2021/12/31 02:25:03;;;;;;;279.17;72.87;;;;;;;;;;5093903;28;20215;-67
2021/12/31 02:27:30;;;;;;;288.30;73.47;;;;;;;;;;5093669;28;20238;-67
2021/12/31 02:29:57;;;;;;;325.77;73.73;;;;;;;;;;5093934;28;20256;-68
2021/12/31 02:32:24;;;;;;;324.53;71.17;;;;;;;;;;5093657;28;20206;-68
2021/12/31 02:34:52;;;;;;;323.90;73.30;;;;;;;;;;5093334;28;20569;-67
2021/12/31 02:37:19;;;;;;;361.53;73.03;;;;;;;;;;5093405;28;20218;-67
2021/12/31 02:39:47;;;;;;;350.27;73.80;;;;;;;;;;5093811;28;20207;-67
2021/12/31 02:42:14;;;;;;;361.73;73.90;;;;;;;;;;5093543;28;20211;-67
2021/12/31 02:44:42;;;;;;;328.90;72.70;;;;;;;;;;5093544;28;20750;-67
2021/12/31 02:47:10;;;;;;;312.93;69.40;;;;;;;;;;5093722;28;20261;-67
2021/12/31 02:49:41;;;;;;;328.93;67.97;;;;;;;;;;5093570;28;20203;-67
2021/12/31 02:52:11;;;;;;;302.17;68.63;;;;;;;;;;5093599;28;20227;-67
2021/12/31 02:54:43;;;;;;;337.93;71.10;;;;;;;;;;5093569;28;20199;-67
2021/12/31 02:57:12;;;;;;;310.27;66.80;;;;;;;;;;5093573;28;20244;-68
2021/12/31 02:59:40;;;;;;;327.43;68.40;;;;;;;;;;5093762;28;20215;-67
2021/12/31 03:02:08;;;;;;;320.17;67.43;;;;;;;;;;5093530;28;20210;-68
2021/12/31 03:04:38;;;;;;;386.83;73.97;;;;;;;;;;5093591;28;20238;-67
2021/12/31 03:07:07;;;;;;;393.33;72.73;;;;;;;;;;5096860;28;20272;-68
2021/12/31 03:09:37;;;;;;;364.60;70.47;;;;;;;;;;5096011;28;20203;-67
2021/12/31 03:12:05;;;;;;;377.43;73.40;;;;;;;;;;5097174;28;20207;-68
2021/12/31 03:14:33;;;;;;;583.53;81.50;;;;;;;;;;5096195;28;20568;-68
2021/12/31 03:17:00;;;;;;;554.33;84.03;;;;;;;;;;5097237;28;20233;-67
2021/12/31 03:19:28;;;;;;;537.17;78.73;;;;;;;;;;5095997;28;20222;-67
2021/12/31 03:21:55;;;;;;;406.00;72.97;;;;;;;;;;5097214;28;20214;-68
2021/12/31 03:24:22;;;;;;;482.20;75.77;;;;;;;;;;5096872;28;20221;-67
2021/12/31 03:26:50;;;;;;;389.37;71.53;;;;;;;;;;5097040;28;20231;-66
2021/12/31 03:29:17;;;;;;;443.43;72.63;;;;;;;;;;5096900;28;20222;-66
2021/12/31 03:31:44;;;;;;;479.30;75.53;;;;;;;;;;5097126;28;20215;-66
2021/12/31 03:34:14;;;;;;;478.70;77.60;;;;;;;;;;5096968;28;20238;-66
2021/12/31 03:36:44;;;;;;;634.03;84.07;;;;;;;;;;5097270;28;20218;-67
2021/12/31 03:39:12;;;;;;;607.43;82.10;;;;;;;;;;5096898;28;20199;-66
2021/12/31 03:41:39;;;;;;;594.07;79.57;;;;;;;;;;5096935;28;20237;-66
2021/12/31 03:44:07;;;;;;;605.53;81.10;;;;;;;;;;5096834;28;20214;-66
2021/12/31 03:46:34;;;;;;;700.07;83.27;;;;;;;;;;5096617;28;20234;-66
2021/12/31 03:49:01;;;;;;;611.13;79.10;;;;;;;;;;5096534;28;20210;-66
2021/12/31 03:51:29;;;;;;;751.40;84.73;;;;;;;;;;5096648;28;20213;-67
2021/12/31 03:53:56;;;;;;;674.97;83.77;;;;;;;;;;5096558;28;20207;-66
2021/12/31 03:56:26;;;;;;;543.40;77.43;;;;;;;;;;5096372;28;20210;-66
2021/12/31 03:58:55;;;;;;;717.17;84.40;;;;;;;;;;5096221;28;20207;-67
2021/12/31 04:01:22;;;;;;;586.40;80.20;;;;;;;;;;5096447;28;20210;-67
2021/12/31 04:03:50;;;;;;;633.00;83.03;;;;;;;;;;5096440;28;20213;-66
2021/12/31 04:06:17;;;;;;;749.00;83.47;;;;;;;;;;5096067;28;20214;-67
2021/12/31 04:08:44;;;;;;;587.50;78.57;;;;;;;;;;5096066;28;20632;-67
2021/12/31 04:11:13;;;;;;;796.43;90.23;;;;;;;;;;5096213;28;20236;-66
2021/12/31 04:13:40;;;;;;;610.67;80.77;;;;;;;;;;5096350;28;20207;-66
2021/12/31 04:16:07;;;;;;;854.13;90.90;;;;;;;;;;5095842;28;20301;-66
2021/12/31 04:18:35;;;;;;;922.83;96.30;;;;;;;;;;5095944;28;20211;-66
2021/12/31 04:21:02;;;;;;;533.47;78.50;;;;;;;;;;5095780;28;20215;-66
2021/12/31 04:23:33;;;;;;;822.87;87.83;;;;;;;;;;5095739;28;20245;-66
2021/12/31 04:26:01;;;;;;;822.33;86.40;;;;;;;;;;5095734;28;20622;-66
2021/12/31 04:28:29;;;;;;;845.10;89.60;;;;;;;;;;5094586;28;20238;-67
2021/12/31 04:30:57;;;;;;;1060.47;96.47;;;;;;;;;;5094688;28;20210;-67
2021/12/31 04:33:24;;;;;;;1115.90;97.67;;;;;;;;;;5095601;28;20234;-67
2021/12/31 04:35:52;;;;;;;973.43;91.87;;;;;;;;;;5095829;28;20217;-66
2021/12/31 04:38:19;;;;;;;834.83;85.47;;;;;;;;;;5095688;28;20658;-66
2021/12/31 04:40:46;;;;;;;593.10;79.13;;;;;;;;;;5095878;28;20206;-67
2021/12/31 04:43:14;;;;;;;721.73;81.87;;;;;;;;;;5095751;28;20210;-67
2021/12/31 04:45:41;;;;;;;1078.57;96.67;;;;;;;;;;5095570;28;20241;-67
2021/12/31 04:48:09;;;;;;;983.97;88.00;;;;;;;;;;5095515;28;20245;-66
2021/12/31 04:50:37;;;;;;;1071.93;92.77;;;;;;;;;;5095318;28;20210;-67
2021/12/31 04:53:04;;;;;;;1096.63;91.57;;;;;;;;;;5095477;28;20301;-67
2021/12/31 04:55:32;;;;;;;734.53;75.13;;;;;;;;;;5095346;28;20290;-67
2021/12/31 04:58:00;;;;;;;920.40;86.73;;;;;;;;;;5095173;28;20210;-67
2021/12/31 05:00:27;;;;;;;1007.63;85.63;;;;;;;;;;5095348;28;20207;-67
2021/12/31 05:02:54;;;;;;;989.87;84.97;;;;;;;;;;5094871;28;20206;-68
2021/12/31 05:05:22;;;;;;;722.00;74.33;;;;;;;;;;5106733;27;20266;-67
2021/12/31 05:07:49;;;;;;;842.43;80.87;;;;;;;;;;5127927;27;20688;-68
2021/12/31 05:10:18;;;;;;;843.63;87.53;;;;;;;;;;5113332;28;20238;-68
2021/12/31 05:12:52;;;;;;;1051.60;83.77;;;;;;;;;;5127279;27;20785;-68
2021/12/31 05:15:25;;;;;;;1119.67;86.57;;;;;;;;;;5126700;27;20618;-68
2021/12/31 05:17:54;;;;;;;1003.00;76.27;;;;;;;;;;5125952;27;20232;-68
2021/12/31 05:20:22;;;;;;;901.97;76.33;;;;;;;;;;5114585;27;20328;-68
2021/12/31 05:22:49;;;;;;;959.93;76.80;;;;;;;;;;5114479;28;20234;-69
2021/12/31 05:25:17;;;;;;;826.70;71.67;;;;;;;;;;5114274;27;20237;-68
2021/12/31 05:27:44;;;;;;;1210.17;85.37;;;;;;;;;;5114285;28;20249;-68
2021/12/31 05:30:11;;;;;;;1155.63;79.33;;;;;;;;;;5113935;27;20229;-69
2021/12/31 05:32:39;;;;;;;1046.90;76.47;;;;;;;;;;5113479;28;20242;-68
2021/12/31 05:35:07;;;;;;;912.97;70.07;;;;;;;;;;5114100;27;20316;-68
2021/12/31 05:37:35;;;;;;;988.60;70.53;;;;;;;;;;5114054;28;20234;-68
2021/12/31 05:40:04;;;;;;;920.73;67.00;;;;;;;;;;5113806;27;20720;-68
2021/12/31 05:42:31;;;;;;;931.87;69.83;;;;;;;;;;5113884;28;20321;-67
2021/12/31 05:44:58;;;;;;;1125.80;70.63;;;;;;;;;;5113960;27;20715;-68
2021/12/31 05:47:26;;;;;;;958.27;64.77;;;;;;;;;;5113620;28;20294;-68
2021/12/31 05:49:53;;;;;;;983.57;63.70;;;;;;;;;;5129404;27;20237;-68
2021/12/31 05:52:21;;;;;;;954.37;64.23;;;;;;;;;;5134345;27;20751;-69
2021/12/31 05:54:48;;;;;;;782.77;59.37;;;;;;;;;;5134312;27;20569;-69
2021/12/31 05:57:16;;;;;;;728.00;94.17;;;;;;;;;;5135225;27;20210;-68
2021/12/31 05:59:43;;;;;;;584.80;47.83;;;;;;;;;;5134986;27;20209;-68
2021/12/31 06:02:10;;;;;;;669.83;52.53;;;;;;;;;;5134750;27;20219;-69
2021/12/31 06:04:38;;;;;;;708.43;52.37;;;;;;;;;;5135008;27;20210;-68
2021/12/31 06:07:09;;;;;;;607.10;51.40;;;;;;;;;;5134934;27;20209;-68
2021/12/31 06:09:36;;;;;;;628.37;52.70;;;;;;;;;;5134758;27;20213;-68
2021/12/31 06:12:04;;;;;;;574.93;49.70;;;;;;;;;;5134552;27;20209;-69
2021/12/31 06:14:31;;;;;;;526.37;47.67;;;;;;;;;;5124965;27;20241;-69
2021/12/31 06:17:06;;;;;;;620.97;51.23;;;;;;;;;;5120953;27;20226;-69
2021/12/31 06:19:34;;;;;;;809.57;58.00;;;;;;;;;;5114034;27;20230;-68
2021/12/31 06:22:02;;;;;;;360.20;40.40;;;;;;;;;;5115398;28;20230;-68
2021/12/31 06:24:29;;;;;;;396.73;45.33;;;;;;;;;;5114350;27;20257;-68
2021/12/31 06:26:56;;;;;;;377.30;46.03;;;;;;;;;;5113724;28;20241;-68
2021/12/31 06:29:24;;;;;;;344.53;45.87;;;;;;;;;;5112200;27;20597;-68
2021/12/31 06:31:51;;;;;;;496.13;45.67;;;;;;;;;;5111556;28;20233;-68
2021/12/31 06:34:18;;;;;;;336.63;41.50;;;;;;;;;;5111348;27;20249;-68
2021/12/31 06:36:45;;;;;;;314.87;41.53;;;;;;;;;;5111648;28;20290;-68
2021/12/31 06:39:13;;;;;;;271.53;39.37;;;;;;;;;;5112036;27;20233;-68
2021/12/31 06:41:40;;;;;;;316.73;40.77;;;;;;;;;;5116117;27;20264;-67
2021/12/31 06:44:08;;;;;;;382.50;43.47;;;;;;;;;;5113980;27;20268;-70
2021/12/31 06:46:35;;;;;;;380.20;42.43;;;;;;;;;;5115884;28;20397;-69
2021/12/31 06:49:03;;;;;;;216.33;34.70;;;;;;;;;;5111560;28;20727;-70
2021/12/31 06:51:31;;;;;;;242.53;35.30;;;;;;;;;;5115471;27;20701;-68
2021/12/31 06:53:58;;;;;;;328.63;40.40;;;;;;;;;;5115838;28;20241;-68
2021/12/31 06:56:25;;;;;;;245.63;36.27;;;;;;;;;;5113955;27;20237;-68
2021/12/31 06:58:53;;;;;;;310.33;37.80;;;;;;;;;;5112310;27;20287;-68
2021/12/31 07:01:21;;;;;;;239.77;40.63;;;;;;;;;;5113204;27;20226;-68
2021/12/31 07:03:48;;;;;;;310.47;36.57;;;;;;;;;;5113472;28;20225;-68
2021/12/31 07:06:16;;;;;;;236.17;34.57;;;;;;;;;;5113714;27;20236;-68
2021/12/31 07:08:45;;;;;;;190.80;32.23;;;;;;;;;;5114955;28;20244;-68
2021/12/31 07:11:13;;;;;;;273.23;34.13;;;;;;;;;;5114019;28;20575;-68
2021/12/31 07:13:40;;;;;;;250.03;35.83;;;;;;;;;;5112463;27;20739;-68
2021/12/31 07:16:07;;;;;;;209.23;34.23;;;;;;;;;;5110461;27;20237;-68
2021/12/31 07:18:35;;;;;;;300.40;40.07;;;;;;;;;;5115376;28;20248;-68
2021/12/31 07:21:03;;;;;;;364.03;54.37;;;;;;;;;;5112572;27;20240;-68
2021/12/31 07:23:30;;;;;;;208.23;38.30;;;;;;;;;;5114688;28;20316;-68
2021/12/31 07:25:57;;;;;;;160.33;35.80;;;;;;;;;;5114578;27;20759;-68
2021/12/31 07:28:25;;;;;;;238.50;38.47;;;;;;;;;;5115285;27;20719;-68
2021/12/31 07:30:52;;;;;;;216.80;37.00;;;;;;;;;;5117489;27;20230;-68
2021/12/31 07:33:21;;;;;;;212.57;40.00;;;;;;;;;;5115428;28;20248;-70
2021/12/31 07:35:52;;;;;;;300.57;39.53;;;;;;;;;;5114645;27;20230;-69
2021/12/31 07:40:50;;;;;;;181.77;36.43;;;;;;;;;;5112775;28;20233;-68
2021/12/31 07:43:18;;;;;;;303.67;38.17;;;;;;;;;;5114208;27;20238;-68
2021/12/31 07:45:48;;;;;;;457.23;46.20;;;;;;;;;;5114275;27;20233;-68
2021/12/31 07:48:15;;;;;;;506.15;42.35;;;;;;;;;;5112404;28;20237;-68
2021/12/31 07:50:43;;;;;;;590.83;42.67;;;;;;;;;;5112090;27;20715;-68
2021/12/31 07:53:11;;;;;;;561.43;47.43;;;;;;;;;;5111200;28;20312;-68
2021/12/31 07:55:38;;;;;;;636.57;45.17;;;;;;;;;;5112257;27;20614;-68
2021/12/31 08:02:28;;;;;;;277.27;39.93;;;;;;;;;;4453338;22;20728;-67
2021/12/31 08:04:56;;;;;;;419.13;46.07;;;;;;;;;;5064723;28;20247;-67
2021/12/31 08:07:24;;;;;;;441.38;45.88;;;;;;;;;;5063580;28;20241;-66
2021/12/31 08:09:51;;;;;;;301.93;44.53;;;;;;;;;;5046841;28;20242;-67
2021/12/31 08:12:38;;;;;;;471.03;51.17;;;;;;;;;;5061985;28;20231;-68
2021/12/31 08:15:06;;;;;;;271.20;41.60;;;;;;;;;;5063733;28;20663;-67
2021/12/31 08:17:33;;;;;;;181.77;35.30;;;;;;;;;;5063395;28;20366;-66
2021/12/31 08:20:01;;;;;;;217.23;36.70;;;;;;;;;;5049493;28;20231;-66
2021/12/31 08:22:28;;;;;;;229.10;38.30;;;;;;;;;;5066606;28;20238;-67
2021/12/31 08:24:55;;;;;;;483.80;57.13;;;;;;;;;;5064909;28;20236;-68
2021/12/31 08:27:22;;;;;;;262.63;43.20;;;;;;;;;;5064271;28;20231;-67
2021/12/31 08:29:49;;;;;;;173.93;44.23;;;;;;;;;;5065617;28;20250;-67
2021/12/31 08:32:16;;;;;;;203.27;38.93;;;;;;;;;;5064316;28;20536;-67
2021/12/31 08:34:44;;;;;;;224.00;39.10;;;;;;;;;;5051640;28;20955;-66
2021/12/31 08:37:12;;;;;;;171.70;36.28;;;;;;;;;;5063744;28;20318;-67
2021/12/31 08:39:39;;;;;;;189.67;35.80;;;;;;;;;;5063103;28;20318;-67
2021/12/31 08:42:07;;;;;;;159.00;33.67;;;;;;;;;;5065141;28;20241;-67
2021/12/31 08:44:34;;;;;;;198.80;41.60;;;;;;;;;;5063251;28;20262;-67
2021/12/31 08:47:01;;;;;;;144.90;38.80;;;;;;;;;;5063736;28;20702;-67
2021/12/31 08:49:29;;;;;;;176.77;38.63;;;;;;;;;;5062837;28;20251;-66
2021/12/31 08:51:57;;;;;;;231.90;42.37;;;;;;;;;;5046801;28;20741;-66
2021/12/31 08:54:24;;;;;;;185.90;42.67;;;;;;;;;;5047042;28;20239;-66
2021/12/31 08:56:52;;;;;;;142.20;30.27;;;;;;;;;;5062782;28;20218;-66
2021/12/31 08:59:21;;;;;;;118.23;27.03;;;;;;;;;;5063255;28;20269;-66
2021/12/31 09:01:49;;;;;;;136.43;27.30;;;;;;;;;;5064776;28;20267;-66
2021/12/31 09:04:17;;;;;;;103.22;25.15;;;;;;;;;;5045171;28;20225;-66
2021/12/31 09:06:44;;;;;;;112.33;25.57;;;;;;;;;;5045406;28;20277;-66
2021/12/31 09:09:11;;;;;;;109.68;25.95;;;;;;;;;;5064498;28;20835;-66
2021/12/31 09:11:38;;;;;;;128.18;27.80;;;;;;;;;;5063262;28;20211;-66
2021/12/31 09:14:05;;;;;;;107.17;28.33;;;;;;;;;;5062999;28;20290;-65
2021/12/31 09:16:33;;;;;;;109.40;27.15;;;;;;;;;;5049394;28;20219;-66
2021/12/31 09:19:01;;;;;;;118.47;29.67;;;;;;;;;;5065726;28;20211;-66
2021/12/31 09:21:28;;;;;;;101.20;26.20;;;;;;;;;;5064089;28;20716;-65
2021/12/31 09:23:55;;;;;;;113.95;29.50;;;;;;;;;;5062424;28;20207;-65
2021/12/31 09:26:23;;;;;;;92.47;26.08;;;;;;;;;;5061129;28;20295;-66
2021/12/31 09:28:50;;;;;;;100.07;26.73;;;;;;;;;;5062135;28;20239;-65
2021/12/31 09:31:17;;;;;;;93.57;25.87;;;;;;;;;;5062494;28;20579;-65
2021/12/31 09:33:44;;;;;;;93.17;26.07;;;;;;;;;;5064425;28;20211;-67
2021/12/31 09:36:12;;;;;;;82.95;25.67;;;;;;;;;;5064089;28;20752;-66
2021/12/31 09:38:39;;;;;;;86.93;24.23;;;;;;;;;;5063064;28;20211;-67
2021/12/31 09:41:06;;;;;;;70.25;23.02;;;;;;;;;;5063512;28;20654;-67
2021/12/31 09:43:33;;;;;;;83.07;23.52;;;;;;;;;;5063466;28;20211;-67
2021/12/31 09:46:00;;;;;;;75.60;23.95;;;;;;;;;;5043118;28;20204;-67
2021/12/31 09:48:28;;;;;;;91.30;27.60;;;;;;;;;;5060706;28;20211;-67
2021/12/31 09:50:56;;;;;;;70.15;21.35;;;;;;;;;;5061523;28;20294;-67
2021/12/31 09:53:26;;;;;;;78.97;22.80;;;;;;;;;;5063810;28;20212;-67
2021/12/31 09:55:55;;;;;;;69.05;20.98;;;;;;;;;;5061179;28;20709;-67
2021/12/31 09:58:25;;;;;;;64.57;21.25;;;;;;;;;;5061799;28;20764;-67
2021/12/31 10:01:01;;;;;;;64.00;20.60;;;;;;;;;;5062171;28;20595;-67
2021/12/31 10:03:32;;;;;;;64.32;21.05;;;;;;;;;;5064284;28;20234;-66
2021/12/31 10:06:08;;;;;;;80.82;23.08;;;;;;;;;;5063749;28;20235;-66
2021/12/31 10:08:42;;;;;;;82.38;24.30;;;;;;;;;;5063160;28;20224;-66
2021/12/31 10:11:19;;;;;;;119.30;31.48;;;;;;;;;;5063401;28;20215;-67
2021/12/31 10:13:57;;;;;;;132.07;28.58;;;;;;;;;;5061812;28;20662;-66
2021/12/31 10:16:39;;;;;;;91.57;26.77;;;;;;;;;;5062155;28;20230;-67
2021/12/31 10:19:08;;;;;;;102.13;26.88;;;;;;;;;;5064362;28;20334;-65
2021/12/31 10:21:43;;;;;;;108.45;30.35;;;;;;;;;;5062782;28;20204;-67
2021/12/31 10:24:25;;;;;;;100.57;27.02;;;;;;;;;;5044370;28;20207;-66
2021/12/31 10:26:54;;;;;;;95.05;27.15;;;;;;;;;;5062102;28;20203;-66
2021/12/31 10:29:21;;;;;;;85.57;27.05;;;;;;;;;;5062664;28;20368;-66
2021/12/31 10:31:53;;;;;;;103.15;33.55;;;;;;;;;;5063598;28;20686;-67
2021/12/31 10:34:27;;;;;;;106.43;32.13;;;;;;;;;;5063160;28;20196;-66
2021/12/31 10:36:57;;;;;;;87.70;27.88;;;;;;;;;;5064151;28;20199;-66
2021/12/31 10:39:27;;;;;;;97.90;29.52;;;;;;;;;;5064231;28;20204;-66
2021/12/31 10:42:00;;;;;;;98.35;28.10;;;;;;;;;;5062118;28;20570;-66
2021/12/31 10:44:45;;;;;;;88.35;26.08;;;;;;;;;;5064404;28;20226;-66
2021/12/31 10:47:18;;;;;;;93.03;29.15;;;;;;;;;;5061591;28;20195;-65
2021/12/31 10:50:02;;;;;;;90.60;27.80;;;;;;;;;;5062128;28;20219;-66
2021/12/31 10:52:41;;;;;;;89.57;30.27;;;;;;;;;;5061339;28;20290;-66
2021/12/31 10:55:21;;;;;;;132.38;41.13;;;;;;;;;;5063547;28;20513;-66
2021/12/31 10:57:54;;;;;;;87.30;26.02;;;;;;;;;;5057911;28;20293;-66
2021/12/31 11:00:24;;;;;;;75.82;25.52;;;;;;;;;;5061745;28;20298;-67
2021/12/31 11:02:51;;;;;;;70.45;25.52;;;;;;;;;;5064178;28;20278;-67
2021/12/31 11:05:21;;;;;;;71.22;25.83;;;;;;;;;;5061769;28;20239;-67
2021/12/31 11:07:49;;;;;;;70.43;23.55;;;;;;;;;;5060603;28;20251;-66
2021/12/31 11:10:37;;;;;;;70.78;23.88;;;;;;;;;;5064381;28;20722;-67
2021/12/31 11:13:19;;;;;;;77.38;25.95;;;;;;;;;;5062077;28;20651;-66
2021/12/31 11:15:50;;;;;;;87.47;29.75;;;;;;;;;;5060666;28;20557;-67
2021/12/31 11:18:23;;;;;;;76.53;26.65;;;;;;;;;;5048646;28;20231;-67
2021/12/31 11:20:53;;;;;;;69.90;23.60;;;;;;;;;;5062146;28;20239;-67
2021/12/31 11:23:27;;;;;;;70.38;23.83;;;;;;;;;;5063737;28;20254;-68
2021/12/31 11:26:00;;;;;;;71.70;24.40;;;;;;;;;;5063241;28;20289;-67
2021/12/31 11:28:38;;;;;;;66.03;24.02;;;;;;;;;;5065047;28;20232;-68
2021/12/31 11:31:19;;;;;;;63.20;23.42;;;;;;;;;;5063812;28;20258;-66
2021/12/31 11:33:50;;;;;;;66.75;24.23;;;;;;;;;;5066783;28;20613;-67
2021/12/31 11:36:37;;;;;;;74.97;26.50;;;;;;;;;;5067319;28;20285;-67
2021/12/31 11:39:23;;;;;;;61.20;23.48;;;;;;;;;;5075171;28;20531;-65
2021/12/31 11:41:56;;;;;;;64.47;25.42;;;;;;;;;;5075399;28;20239;-64
2021/12/31 11:44:25;;;;;;;60.83;23.10;;;;;;;;;;5076016;28;20227;-68
2021/12/31 11:47:09;;;;;;;69.35;24.88;;;;;;;;;;5074785;28;20649;-68
2021/12/31 11:49:36;;;;;;;71.60;25.42;;;;;;;;;;5075385;28;20247;-68
2021/12/31 11:52:08;;;;;;;61.67;22.88;;;;;;;;;;5041926;28;20636;-68
2021/12/31 11:54:37;;;;;;;60.53;22.77;;;;;;;;;;5074884;28;20235;-65
2021/12/31 11:57:10;;;;;;;59.83;23.50;;;;;;;;;;5058086;28;20239;-64
2021/12/31 11:59:44;;;;;;;63.17;23.63;;;;;;;;;;5075165;28;20227;-65
2021/12/31 12:02:17;;;;;;;58.08;23.77;;;;;;;;;;5074895;28;20239;-66
2021/12/31 12:04:58;;;;;;;84.38;28.40;;;;;;;;;;5074627;28;20239;-68
2021/12/31 12:07:47;;;;;;;76.85;27.52;;;;;;;;;;5064166;28;20237;-67
2021/12/31 12:10:19;;;;;;;91.85;34.20;;;;;;;;;;5075580;28;20372;-69
2021/12/31 12:12:50;;;;;;;80.80;30.92;;;;;;;;;;5067132;28;20227;-68
2021/12/31 12:15:18;;;;;;;184.75;90.88;;;;;;;;;;5077938;28;20237;-67
2021/12/31 12:17:45;;;;;;;99.75;38.60;;;;;;;;;;5076152;28;20242;-66
2021/12/31 12:20:20;;;;;;;104.65;37.00;;;;;;;;;;5075264;28;20227;-66
2021/12/31 12:22:53;;;;;;;96.75;37.20;;;;;;;;;;5075321;28;20231;-68
2021/12/31 12:25:40;;;;;;;81.50;35.10;;;;;;;;;;5074067;28;20238;-66
2021/12/31 12:28:10;;;;;;;90.03;34.17;;;;;;;;;;5075158;28;20231;-66
2021/12/31 12:30:47;;;;;;;69.65;30.55;;;;;;;;;;5074658;28;20239;-68
2021/12/31 12:33:25;;;;;;;68.00;29.58;;;;;;;;;;5075369;28;20667;-65
2021/12/31 12:35:54;;;;;;;67.07;29.52;;;;;;;;;;5075358;28;20227;-69
2021/12/31 12:38:23;;;;;;;66.43;27.77;;;;;;;;;;5074503;28;20232;-65
2021/12/31 12:41:11;;;;;;;63.33;29.15;;;;;;;;;;5074062;28;20233;-66
2021/12/31 12:43:47;;;;;;;57.83;28.35;;;;;;;;;;5067844;28;20239;-64
2021/12/31 12:46:18;;;;;;;56.10;26.80;;;;;;;;;;5064821;28;20323;-65
2021/12/31 12:48:51;;;;;;;47.38;24.98;;;;;;;;;;5064983;28;20227;-64
2021/12/31 12:51:30;;;;;;;54.20;26.60;;;;;;;;;;5065124;28;20729;-67
2021/12/31 12:54:02;;;;;;;47.95;23.98;;;;;;;;;;5074121;28;20227;-67
2021/12/31 12:56:30;;;;;;;50.63;24.65;;;;;;;;;;5073075;28;20231;-65
2021/12/31 12:59:00;;;;;;;46.67;23.63;;;;;;;;;;5074115;28;20237;-66
2021/12/31 13:01:33;;;;;;;46.30;24.65;;;;;;;;;;5073210;28;20261;-67
2021/12/31 13:04:02;;;;;;;40.92;24.17;;;;;;;;;;5074186;28;20281;-69
2021/12/31 13:06:29;;;;;;;51.13;27.75;;;;;;;;;;5074243;28;20643;-67
2021/12/31 13:09:05;;;;;;;49.15;26.67;;;;;;;;;;5073781;28;20693;-67
2021/12/31 13:11:34;;;;;;;46.63;24.85;;;;;;;;;;5069370;28;20585;-68
2021/12/31 13:14:02;;;;;;;45.80;25.10;;;;;;;;;;5047258;28;20718;-67
2021/12/31 13:16:29;;;;;;;38.92;23.50;;;;;;;;;;5045250;28;20257;-67
2021/12/31 13:19:01;;;;;;;37.50;24.13;;;;;;;;;;5046009;28;20590;-66
2021/12/31 13:21:29;;;;;;;38.50;23.60;;;;;;;;;;5064660;28;20629;-66
2021/12/31 13:23:56;;;;;;;38.42;23.67;;;;;;;;;;5065458;28;20354;-67
2021/12/31 13:26:28;;;;;;;42.17;25.17;;;;;;;;;;5064933;28;20677;-67
2021/12/31 13:28:57;;;;;;;37.08;23.85;;;;;;;;;;5063829;28;20236;-67
2021/12/31 13:31:35;;;;;;;38.75;24.45;;;;;;;;;;5063324;28;20847;-67
2021/12/31 13:34:18;;;;;;;36.92;24.00;;;;;;;;;;5064086;28;20259;-67
2021/12/31 13:36:47;;;;;;;39.50;23.25;;;;;;;;;;5063609;28;20235;-67
2021/12/31 13:39:19;;;;;;;43.03;25.15;;;;;;;;;;5062691;28;20267;-67
2021/12/31 13:41:51;;;;;;;42.63;25.23;;;;;;;;;;5063426;28;20239;-66
2021/12/31 13:44:34;;;;;;;44.97;26.05;;;;;;;;;;5067125;28;20277;-67
2021/12/31 13:47:07;;;;;;;44.47;27.92;;;;;;;;;;5068475;28;20234;-65
2021/12/31 13:49:37;;;;;;;43.85;26.67;;;;;;;;;;5064991;28;20246;-68
2021/12/31 13:52:21;;;;;;;45.08;27.33;;;;;;;;;;5072932;28;20531;-68
2021/12/31 13:54:51;;;;;;;49.75;27.73;;;;;;;;;;5072539;28;20296;-67
2021/12/31 13:57:26;;;;;;;44.67;26.77;;;;;;;;;;5073087;28;20219;-67
2021/12/31 13:59:55;;;;;;;46.83;27.90;;;;;;;;;;5073224;28;20226;-68
2021/12/31 14:02:27;;;;;;;53.10;30.08;;;;;;;;;;5072048;28;20243;-66
2021/12/31 14:04:54;;;;;;;50.40;29.40;;;;;;;;;;5073079;28;20701;-67
2021/12/31 14:07:33;;;;;;;60.28;32.67;;;;;;;;;;5072023;28;20258;-66
2021/12/31 14:10:05;;;;;;;55.38;30.25;;;;;;;;;;5071932;28;20246;-67
2021/12/31 14:12:52;;;;;;;56.78;29.20;;;;;;;;;;5072329;28;20262;-67
2021/12/31 14:15:22;;;;;;;56.13;30.38;;;;;;;;;;5071724;28;20231;-66
2021/12/31 14:17:50;;;;;;;54.30;28.52;;;;;;;;;;5072499;28;20227;-67
2021/12/31 14:20:20;;;;;;;56.10;31.30;;;;;;;;;;5072543;28;20235;-66
2021/12/31 14:22:50;;;;;;;64.97;32.22;;;;;;;;;;5071887;28;20683;-63
2021/12/31 14:25:19;;;;;;;55.95;32.53;;;;;;;;;;5072237;28;20231;-63
2021/12/31 14:27:46;;;;;;;67.57;34.53;;;;;;;;;;5055511;28;20231;-65
2021/12/31 14:30:13;;;;;;;72.70;36.28;;;;;;;;;;5071560;28;21148;-65
2021/12/31 14:32:41;;;;;;;73.90;35.55;;;;;;;;;;5072031;28;20258;-66
2021/12/31 14:35:10;;;;;;;68.78;33.80;;;;;;;;;;5072508;28;20243;-64